JLY1207 SBCF-SBIL
Flight info
| Callsign | JLY1207 |
|---|---|
| Flight time | 1h 6m |
| Altitude | 37000 |
| Route | KADOR UZ14 DALOX |
| Aircraft | B738/M-SDFGIKRWY/LB1 |
Departure
| Time | 2026-05-04 12:14 |
|---|---|
| Airport | Tancredo Neves International Airport (SBCF) |
Arrival
| Time | 2026-05-04 13:20 |
|---|---|
| Airport | Bahia - Jorge Amado Airport (SBIL) |
| Time | Latitude | Longitude | Altitude | Speed | Heading |
|---|---|---|---|---|---|
| 2026-05-04 11:49 | -19.63251 | -43.96446 | 2756 ft | 0 kts | 68° |
| 2026-05-04 12:03 | -19.63256 | -43.96460 | 2756 ft | 2 kts | 68° |
| 2026-05-04 12:03 | -19.63262 | -43.96474 | 2757 ft | 2 kts | 68° |
| 2026-05-04 12:04 | -19.63265 | -43.96483 | 2757 ft | 2 kts | 68° |
| 2026-05-04 12:04 | -19.63275 | -43.96494 | 2757 ft | 2 kts | 19° |
| 2026-05-04 12:04 | -19.63290 | -43.96495 | 2758 ft | 2 kts | 339° |
| 2026-05-04 12:04 | -19.63297 | -43.96491 | 2758 ft | 0 kts | 316° |
| 2026-05-04 12:05 | -19.63301 | -43.96487 | 2758 ft | 0 kts | 318° |
| 2026-05-04 12:07 | -19.63298 | -43.96489 | 2758 ft | 1 kts | 318° |
| 2026-05-04 12:07 | -19.63279 | -43.96507 | 2758 ft | 5 kts | 318° |
| 2026-05-04 12:07 | -19.63239 | -43.96541 | 2758 ft | 9 kts | 323° |
| 2026-05-04 12:07 | -19.63193 | -43.96596 | 2758 ft | 10 kts | 270° |
| 2026-05-04 12:08 | -19.63234 | -43.96666 | 2759 ft | 11 kts | 231° |
| 2026-05-04 12:08 | -19.63255 | -43.96744 | 2759 ft | 12 kts | 300° |
| 2026-05-04 12:08 | -19.63191 | -43.96811 | 2759 ft | 13 kts | 319° |
| 2026-05-04 12:08 | -19.63118 | -43.96880 | 2759 ft | 14 kts | 318° |
| 2026-05-04 12:09 | -19.63038 | -43.96955 | 2759 ft | 15 kts | 318° |
| 2026-05-04 12:09 | -19.62956 | -43.97032 | 2758 ft | 15 kts | 318° |
| 2026-05-04 12:09 | -19.62876 | -43.97108 | 2758 ft | 15 kts | 318° |
| 2026-05-04 12:09 | -19.62795 | -43.97183 | 2758 ft | 15 kts | 319° |
| 2026-05-04 12:10 | -19.62716 | -43.97257 | 2758 ft | 15 kts | 319° |
| 2026-05-04 12:10 | -19.62637 | -43.97329 | 2758 ft | 14 kts | 319° |
| 2026-05-04 12:10 | -19.62560 | -43.97401 | 2758 ft | 14 kts | 319° |
| 2026-05-04 12:10 | -19.62482 | -43.97471 | 2758 ft | 14 kts | 320° |
| 2026-05-04 12:11 | -19.62405 | -43.97539 | 2758 ft | 14 kts | 319° |
| 2026-05-04 12:11 | -19.62330 | -43.97609 | 2758 ft | 14 kts | 319° |
| 2026-05-04 12:11 | -19.62285 | -43.97676 | 2758 ft | 10 kts | 269° |
| 2026-05-04 12:11 | -19.62321 | -43.97744 | 2758 ft | 10 kts | 231° |
| 2026-05-04 12:12 | -19.62375 | -43.97785 | 2758 ft | 9 kts | 169° |
| 2026-05-04 12:12 | -19.62442 | -43.97735 | 2758 ft | 22 kts | 139° |
| 2026-05-04 12:12 | -19.62735 | -43.97465 | 2758 ft | 87 kts | 139° |
| 2026-05-04 12:12 | -19.63342 | -43.96905 | 2759 ft | 140 kts | 139° |
| 2026-05-04 12:13 | -19.64165 | -43.96143 | 2941 ft | 164 kts | 139° |
| 2026-05-04 12:14 | -19.67543 | -43.88750 | 5883 ft | 219 kts | 65° |
| 2026-05-04 12:15 | -19.66947 | -43.87210 | 6235 ft | 236 kts | 68° |
| 2026-05-04 12:15 | -19.66364 | -43.85523 | 6696 ft | 250 kts | 69° |
| 2026-05-04 12:15 | -19.65762 | -43.83732 | 7127 ft | 264 kts | 69° |
| 2026-05-04 12:15 | -19.65138 | -43.81885 | 7737 ft | 271 kts | 69° |
| 2026-05-04 12:16 | -19.64495 | -43.79997 | 8395 ft | 277 kts | 69° |
| 2026-05-04 12:16 | -19.63836 | -43.78069 | 9117 ft | 280 kts | 69° |
| 2026-05-04 12:16 | -19.63165 | -43.76110 | 9792 ft | 285 kts | 69° |
| 2026-05-04 12:16 | -19.62494 | -43.74153 | 10455 ft | 290 kts | 69° |
| 2026-05-04 12:17 | -19.61694 | -43.72128 | 10828 ft | 307 kts | 61° |
| 2026-05-04 12:17 | -19.60478 | -43.70198 | 11197 ft | 322 kts | 51° |
| 2026-05-04 12:17 | -19.58998 | -43.68327 | 11547 ft | 338 kts | 48° |
| 2026-05-04 12:17 | -19.57412 | -43.66418 | 11973 ft | 351 kts | 48° |
| 2026-05-04 12:18 | -19.55783 | -43.64436 | 12515 ft | 360 kts | 49° |
| 2026-05-04 12:18 | -19.54163 | -43.62416 | 13150 ft | 365 kts | 49° |
| 2026-05-04 12:18 | -19.52517 | -43.60319 | 13804 ft | 370 kts | 50° |
| 2026-05-04 12:18 | -19.50881 | -43.58206 | 14436 ft | 375 kts | 50° |
| 2026-05-04 12:19 | -19.49264 | -43.56036 | 15093 ft | 380 kts | 52° |
| 2026-05-04 12:19 | -19.47640 | -43.53784 | 15746 ft | 384 kts | 52° |
| 2026-05-04 12:19 | -19.46025 | -43.51522 | 16382 ft | 388 kts | 52° |
| 2026-05-04 12:19 | -19.44403 | -43.49254 | 17022 ft | 392 kts | 52° |
| 2026-05-04 12:20 | -19.42754 | -43.46957 | 17591 ft | 397 kts | 52° |
| 2026-05-04 12:20 | -19.41052 | -43.44597 | 18162 ft | 402 kts | 52° |
| 2026-05-04 12:20 | -19.39346 | -43.42239 | 18734 ft | 407 kts | 52° |
| 2026-05-04 12:20 | -19.37624 | -43.39865 | 19288 ft | 411 kts | 51° |
| 2026-05-04 12:21 | -19.35865 | -43.37445 | 19872 ft | 415 kts | 51° |
| 2026-05-04 12:21 | -19.34107 | -43.35030 | 20385 ft | 420 kts | 51° |
| 2026-05-04 12:21 | -19.32309 | -43.32560 | 20937 ft | 424 kts | 51° |
| 2026-05-04 12:21 | -19.30497 | -43.30068 | 21498 ft | 428 kts | 51° |
| 2026-05-04 12:22 | -19.28674 | -43.27559 | 22002 ft | 432 kts | 51° |
| 2026-05-04 12:22 | -19.26832 | -43.25024 | 22496 ft | 437 kts | 50° |
| 2026-05-04 12:22 | -19.24969 | -43.22461 | 23054 ft | 440 kts | 50° |
| 2026-05-04 12:22 | -19.23104 | -43.19894 | 23514 ft | 445 kts | 50° |
| 2026-05-04 12:23 | -19.21219 | -43.17303 | 24011 ft | 448 kts | 50° |
| 2026-05-04 12:23 | -19.19297 | -43.14661 | 24487 ft | 452 kts | 50° |
| 2026-05-04 12:23 | -19.17368 | -43.12011 | 24969 ft | 456 kts | 50° |
| 2026-05-04 12:23 | -19.15440 | -43.09362 | 25455 ft | 459 kts | 50° |
| 2026-05-04 12:24 | -19.13492 | -43.06687 | 25921 ft | 463 kts | 50° |
| 2026-05-04 12:24 | -19.11516 | -43.03976 | 26399 ft | 466 kts | 50° |
| 2026-05-04 12:24 | -19.09542 | -43.01268 | 26848 ft | 469 kts | 50° |
| 2026-05-04 12:24 | -19.07518 | -42.98491 | 27323 ft | 472 kts | 50° |
| 2026-05-04 12:25 | -19.05516 | -42.95746 | 27734 ft | 475 kts | 50° |
| 2026-05-04 12:25 | -19.03500 | -42.92984 | 28081 ft | 480 kts | 50° |
| 2026-05-04 12:25 | -19.01439 | -42.90160 | 28568 ft | 482 kts | 50° |
| 2026-05-04 12:25 | -18.99393 | -42.87360 | 28951 ft | 486 kts | 50° |
| 2026-05-04 12:26 | -18.97320 | -42.84522 | 29527 ft | 484 kts | 50° |
| 2026-05-04 12:26 | -18.95263 | -42.81736 | 30129 ft | 481 kts | 49° |
| 2026-05-04 12:26 | -18.93144 | -42.79036 | 30631 ft | 479 kts | 45° |
| 2026-05-04 12:26 | -18.90801 | -42.76519 | 31116 ft | 476 kts | 38° |
| 2026-05-04 12:27 | -18.88321 | -42.74267 | 31601 ft | 472 kts | 34° |
| 2026-05-04 12:27 | -18.85706 | -42.72123 | 32089 ft | 470 kts | 32° |
| 2026-05-04 12:27 | -18.83108 | -42.70095 | 32518 ft | 469 kts | 31° |
| 2026-05-04 12:27 | -18.80452 | -42.68060 | 32932 ft | 469 kts | 31° |
| 2026-05-04 12:28 | -18.77813 | -42.66037 | 33453 ft | 468 kts | 31° |
| 2026-05-04 12:28 | -18.75199 | -42.64019 | 33934 ft | 467 kts | 31° |
| 2026-05-04 12:28 | -18.72595 | -42.61991 | 34411 ft | 466 kts | 31° |
| 2026-05-04 12:28 | -18.69979 | -42.59940 | 34819 ft | 466 kts | 32° |
| 2026-05-04 12:29 | -18.67363 | -42.57875 | 35222 ft | 466 kts | 32° |
| 2026-05-04 12:29 | -18.64767 | -42.55819 | 35607 ft | 467 kts | 32° |
| 2026-05-04 12:29 | -18.62184 | -42.53766 | 35972 ft | 467 kts | 32° |
| 2026-05-04 12:29 | -18.59598 | -42.51708 | 36325 ft | 467 kts | 32° |
| 2026-05-04 12:30 | -18.56981 | -42.49623 | 36650 ft | 468 kts | 32° |
| 2026-05-04 12:30 | -18.54389 | -42.47557 | 37037 ft | 467 kts | 32° |
| 2026-05-04 12:30 | -18.51780 | -42.45478 | 37268 ft | 468 kts | 32° |
| 2026-05-04 12:30 | -18.49167 | -42.43399 | 37262 ft | 469 kts | 32° |
| 2026-05-04 12:31 | -18.43994 | -42.39278 | 37263 ft | 465 kts | 32° |
| 2026-05-04 12:31 | -18.38814 | -42.35157 | 37265 ft | 467 kts | 32° |
| 2026-05-04 12:32 | -18.31046 | -42.28983 | 37257 ft | 465 kts | 32° |
| 2026-05-04 12:33 | -18.25859 | -42.24868 | 37262 ft | 465 kts | 32° |
| 2026-05-04 12:33 | -18.20676 | -42.20758 | 37254 ft | 467 kts | 32° |
| 2026-05-04 12:34 | -18.15481 | -42.16640 | 37243 ft | 465 kts | 32° |
| 2026-05-04 12:34 | -18.10321 | -42.12552 | 37237 ft | 464 kts | 32° |
| 2026-05-04 12:35 | -18.05171 | -42.08477 | 37237 ft | 465 kts | 32° |
| 2026-05-04 12:35 | -17.99980 | -42.04374 | 37234 ft | 465 kts | 32° |
| 2026-05-04 12:36 | -17.94817 | -42.00295 | 37234 ft | 465 kts | 32° |
| 2026-05-04 12:36 | -17.89663 | -41.96226 | 37239 ft | 465 kts | 32° |
| 2026-05-04 12:37 | -17.84491 | -41.92144 | 37243 ft | 464 kts | 32° |
| 2026-05-04 12:37 | -17.79330 | -41.88076 | 37244 ft | 464 kts | 33° |
| 2026-05-04 12:38 | -17.74149 | -41.83994 | 37245 ft | 464 kts | 32° |
| 2026-05-04 12:38 | -17.69024 | -41.79959 | 37241 ft | 462 kts | 32° |
| 2026-05-04 12:39 | -17.63876 | -41.75910 | 37239 ft | 463 kts | 32° |
| 2026-05-04 12:39 | -17.58716 | -41.71853 | 37236 ft | 462 kts | 33° |
| 2026-05-04 12:40 | -17.53571 | -41.67813 | 37232 ft | 462 kts | 33° |
| 2026-05-04 12:40 | -17.48428 | -41.63778 | 37230 ft | 463 kts | 33° |
| 2026-05-04 12:41 | -17.43279 | -41.59739 | 37231 ft | 461 kts | 33° |
| 2026-05-04 12:41 | -17.38133 | -41.55705 | 37231 ft | 462 kts | 33° |
| 2026-05-04 12:42 | -17.32970 | -41.51662 | 37230 ft | 461 kts | 33° |
| 2026-05-04 12:42 | -17.27841 | -41.47646 | 37231 ft | 461 kts | 33° |
| 2026-05-04 12:43 | -17.22704 | -41.43627 | 37233 ft | 461 kts | 33° |
| 2026-05-04 12:43 | -17.17548 | -41.39597 | 37233 ft | 461 kts | 33° |
| 2026-05-04 12:44 | -17.12432 | -41.35598 | 37234 ft | 460 kts | 33° |
| 2026-05-04 12:44 | -17.07320 | -41.31607 | 37234 ft | 459 kts | 32° |
| 2026-05-04 12:45 | -17.02192 | -41.27607 | 37237 ft | 459 kts | 32° |
| 2026-05-04 12:45 | -16.97067 | -41.23612 | 37237 ft | 458 kts | 32° |
| 2026-05-04 12:46 | -16.91949 | -41.19625 | 37225 ft | 459 kts | 33° |
| 2026-05-04 12:46 | -16.86824 | -41.15636 | 37218 ft | 460 kts | 33° |
| 2026-05-04 12:47 | -16.81679 | -41.11633 | 37216 ft | 459 kts | 33° |
| 2026-05-04 12:47 | -16.76591 | -41.07677 | 37215 ft | 459 kts | 33° |
| 2026-05-04 12:48 | -16.71479 | -41.03705 | 37219 ft | 458 kts | 33° |
| 2026-05-04 12:48 | -16.66352 | -40.99724 | 37214 ft | 457 kts | 33° |
| 2026-05-04 12:49 | -16.61251 | -40.95768 | 37219 ft | 458 kts | 33° |
| 2026-05-04 12:49 | -16.56119 | -40.91790 | 37224 ft | 459 kts | 33° |
| 2026-05-04 12:50 | -16.51009 | -40.87832 | 37221 ft | 458 kts | 33° |
| 2026-05-04 12:50 | -16.45888 | -40.83867 | 37213 ft | 458 kts | 33° |
| 2026-05-04 12:51 | -16.40770 | -40.79907 | 37207 ft | 458 kts | 33° |
| 2026-05-04 12:51 | -16.35645 | -40.75945 | 37204 ft | 458 kts | 33° |
| 2026-05-04 12:52 | -16.30535 | -40.71996 | 37194 ft | 458 kts | 33° |
| 2026-05-04 12:52 | -16.25401 | -40.68032 | 37192 ft | 459 kts | 33° |
| 2026-05-04 12:53 | -16.20276 | -40.64076 | 37188 ft | 458 kts | 33° |
| 2026-05-04 12:53 | -16.15142 | -40.60117 | 37189 ft | 458 kts | 33° |
| 2026-05-04 12:54 | -16.10016 | -40.56167 | 37192 ft | 458 kts | 33° |
| 2026-05-04 12:54 | -16.04910 | -40.52235 | 36868 ft | 454 kts | 33° |
| 2026-05-04 12:54 | -16.02388 | -40.50291 | 36406 ft | 449 kts | 34° |
| 2026-05-04 12:55 | -15.99906 | -40.48380 | 35840 ft | 447 kts | 34° |
| 2026-05-04 12:55 | -15.97481 | -40.46343 | 35263 ft | 446 kts | 40° |
| 2026-05-04 12:55 | -15.95281 | -40.44072 | 34840 ft | 443 kts | 46° |
| 2026-05-04 12:55 | -15.93317 | -40.41617 | 34347 ft | 448 kts | 51° |
| 2026-05-04 12:56 | -15.91443 | -40.38977 | 33864 ft | 451 kts | 54° |
| 2026-05-04 12:56 | -15.89686 | -40.36340 | 33383 ft | 447 kts | 55° |
| 2026-05-04 12:56 | -15.87953 | -40.33661 | 32902 ft | 441 kts | 56° |
| 2026-05-04 12:56 | -15.86277 | -40.31048 | 32467 ft | 436 kts | 55° |
| 2026-05-04 12:57 | -15.84594 | -40.28426 | 31999 ft | 432 kts | 55° |
| 2026-05-04 12:57 | -15.82927 | -40.25841 | 31532 ft | 428 kts | 55° |
| 2026-05-04 12:57 | -15.81283 | -40.23307 | 31067 ft | 424 kts | 55° |
| 2026-05-04 12:57 | -15.79643 | -40.20792 | 30610 ft | 420 kts | 55° |
| 2026-05-04 12:58 | -15.77994 | -40.18272 | 30156 ft | 416 kts | 55° |
| 2026-05-04 12:58 | -15.76388 | -40.15826 | 29701 ft | 412 kts | 55° |
| 2026-05-04 12:58 | -15.74768 | -40.13364 | 29245 ft | 408 kts | 55° |
| 2026-05-04 12:58 | -15.73188 | -40.10966 | 28792 ft | 404 kts | 55° |
| 2026-05-04 12:59 | -15.71616 | -40.08583 | 28347 ft | 400 kts | 55° |
| 2026-05-04 12:59 | -15.70038 | -40.06194 | 27894 ft | 397 kts | 54° |
| 2026-05-04 12:59 | -15.68490 | -40.03852 | 27447 ft | 393 kts | 54° |
| 2026-05-04 12:59 | -15.66958 | -40.01534 | 27010 ft | 390 kts | 54° |
| 2026-05-04 13:00 | -15.65416 | -39.99204 | 26555 ft | 386 kts | 54° |
| 2026-05-04 13:00 | -15.63920 | -39.96942 | 26118 ft | 383 kts | 54° |
| 2026-05-04 13:00 | -15.62411 | -39.94663 | 25672 ft | 380 kts | 55° |
| 2026-05-04 13:00 | -15.60926 | -39.92419 | 25234 ft | 377 kts | 55° |
| 2026-05-04 13:01 | -15.59454 | -39.90197 | 24794 ft | 373 kts | 54° |
| 2026-05-04 13:01 | -15.57995 | -39.87994 | 24359 ft | 370 kts | 54° |
| 2026-05-04 13:01 | -15.56549 | -39.85810 | 23926 ft | 367 kts | 55° |
| 2026-05-04 13:01 | -15.55111 | -39.83641 | 23500 ft | 364 kts | 55° |
| 2026-05-04 13:02 | -15.53670 | -39.81467 | 23069 ft | 361 kts | 54° |
| 2026-05-04 13:02 | -15.52253 | -39.79329 | 22644 ft | 358 kts | 55° |
| 2026-05-04 13:02 | -15.50853 | -39.77219 | 22224 ft | 355 kts | 55° |
| 2026-05-04 13:02 | -15.49449 | -39.75103 | 21803 ft | 352 kts | 55° |
| 2026-05-04 13:03 | -15.48061 | -39.73013 | 21384 ft | 349 kts | 55° |
| 2026-05-04 13:03 | -15.46689 | -39.70945 | 20974 ft | 346 kts | 55° |
| 2026-05-04 13:03 | -15.45331 | -39.68901 | 20556 ft | 344 kts | 55° |
| 2026-05-04 13:03 | -15.43982 | -39.66869 | 20142 ft | 341 kts | 56° |
| 2026-05-04 13:04 | -15.42635 | -39.64843 | 19734 ft | 338 kts | 56° |
| 2026-05-04 13:04 | -15.41306 | -39.62843 | 19328 ft | 336 kts | 56° |
| 2026-05-04 13:04 | -15.39984 | -39.60855 | 18923 ft | 333 kts | 56° |
| 2026-05-04 13:04 | -15.38684 | -39.58898 | 18640 ft | 329 kts | 56° |
| 2026-05-04 13:05 | -15.37375 | -39.56927 | 18404 ft | 332 kts | 56° |
| 2026-05-04 13:05 | -15.36065 | -39.54955 | 18150 ft | 331 kts | 56° |
| 2026-05-04 13:05 | -15.34771 | -39.53009 | 17780 ft | 327 kts | 57° |
| 2026-05-04 13:05 | -15.33481 | -39.51072 | 17372 ft | 325 kts | 57° |
| 2026-05-04 13:06 | -15.32192 | -39.49136 | 16964 ft | 323 kts | 57° |
| 2026-05-04 13:06 | -15.30921 | -39.47227 | 16546 ft | 322 kts | 57° |
| 2026-05-04 13:06 | -15.29663 | -39.45339 | 16130 ft | 320 kts | 57° |
| 2026-05-04 13:06 | -15.28394 | -39.43436 | 15723 ft | 317 kts | 57° |
| 2026-05-04 13:07 | -15.27137 | -39.41549 | 15314 ft | 315 kts | 57° |
| 2026-05-04 13:07 | -15.25900 | -39.39695 | 14914 ft | 313 kts | 57° |
| 2026-05-04 13:07 | -15.24669 | -39.37848 | 14512 ft | 310 kts | 57° |
| 2026-05-04 13:07 | -15.23448 | -39.36018 | 14110 ft | 308 kts | 57° |
| 2026-05-04 13:08 | -15.22243 | -39.34211 | 13713 ft | 306 kts | 57° |
| 2026-05-04 13:08 | -15.21027 | -39.32390 | 13313 ft | 303 kts | 57° |
| 2026-05-04 13:08 | -15.19829 | -39.30595 | 12921 ft | 301 kts | 57° |
| 2026-05-04 13:08 | -15.18649 | -39.28827 | 12529 ft | 299 kts | 57° |
| 2026-05-04 13:09 | -15.17474 | -39.27067 | 12139 ft | 298 kts | 57° |
| 2026-05-04 13:09 | -15.16296 | -39.25304 | 11742 ft | 296 kts | 57° |
| 2026-05-04 13:09 | -15.15124 | -39.23550 | 11351 ft | 294 kts | 58° |
| 2026-05-04 13:09 | -15.13975 | -39.21831 | 10969 ft | 292 kts | 58° |
| 2026-05-04 13:10 | -15.12823 | -39.20107 | 10587 ft | 290 kts | 58° |
| 2026-05-04 13:10 | -15.11675 | -39.18390 | 10208 ft | 288 kts | 58° |
| 2026-05-04 13:10 | -15.10539 | -39.16693 | 10004 ft | 279 kts | 58° |
| 2026-05-04 13:10 | -15.09449 | -39.15064 | 9638 ft | 279 kts | 58° |
| 2026-05-04 13:11 | -15.08337 | -39.13399 | 9261 ft | 277 kts | 58° |
| 2026-05-04 13:11 | -15.07241 | -39.11762 | 8900 ft | 276 kts | 58° |
| 2026-05-04 13:11 | -15.06152 | -39.10134 | 8543 ft | 274 kts | 58° |
| 2026-05-04 13:11 | -15.05071 | -39.08519 | 8193 ft | 272 kts | 58° |
| 2026-05-04 13:12 | -15.04003 | -39.06923 | 7846 ft | 271 kts | 58° |
| 2026-05-04 13:12 | -15.02932 | -39.05324 | 7490 ft | 269 kts | 58° |
| 2026-05-04 13:12 | -15.01871 | -39.03740 | 7181 ft | 265 kts | 58° |
| 2026-05-04 13:12 | -15.00828 | -39.02187 | 7303 ft | 269 kts | 58° |
| 2026-05-04 13:13 | -14.99762 | -39.00596 | 7041 ft | 260 kts | 58° |
| 2026-05-04 13:13 | -14.98762 | -38.99108 | 6860 ft | 247 kts | 59° |
| 2026-05-04 13:13 | -14.97783 | -38.97646 | 6436 ft | 247 kts | 59° |
| 2026-05-04 13:13 | -14.96804 | -38.96178 | 5994 ft | 247 kts | 59° |
| 2026-05-04 13:14 | -14.95834 | -38.94730 | 5581 ft | 247 kts | 59° |
| 2026-05-04 13:14 | -14.94861 | -38.93281 | 5168 ft | 247 kts | 59° |
| 2026-05-04 13:14 | -14.93873 | -38.91811 | 4764 ft | 246 kts | 59° |
| 2026-05-04 13:14 | -14.92902 | -38.90364 | 4487 ft | 243 kts | 58° |
| 2026-05-04 13:15 | -14.91944 | -38.88936 | 4379 ft | 245 kts | 59° |
| 2026-05-04 13:15 | -14.90963 | -38.87474 | 4287 ft | 244 kts | 58° |
| 2026-05-04 13:15 | -14.89943 | -38.86140 | 4204 ft | 229 kts | 49° |
| 2026-05-04 13:15 | -14.88624 | -38.85274 | 3994 ft | 225 kts | 18° |
| 2026-05-04 13:16 | -14.87064 | -38.85171 | 3679 ft | 225 kts | 358° |
| 2026-05-04 13:16 | -14.85523 | -38.85308 | 3378 ft | 221 kts | 357° |
| 2026-05-04 13:16 | -14.84002 | -38.85468 | 3151 ft | 214 kts | 346° |
| 2026-05-04 13:16 | -14.82803 | -38.86272 | 3071 ft | 204 kts | 305° |
| 2026-05-04 13:17 | -14.82177 | -38.87573 | 2839 ft | 203 kts | 288° |
| 2026-05-04 13:17 | -14.81772 | -38.88961 | 2587 ft | 197 kts | 281° |
| 2026-05-04 13:17 | -14.81531 | -38.90330 | 2308 ft | 192 kts | 274° |
| 2026-05-04 13:17 | -14.81425 | -38.91664 | 2058 ft | 176 kts | 270° |
| 2026-05-04 13:18 | -14.81387 | -38.92891 | 1846 ft | 172 kts | 267° |
| 2026-05-04 13:18 | -14.81379 | -38.94089 | 1591 ft | 160 kts | 265° |
| 2026-05-04 13:18 | -14.81388 | -38.95226 | 1421 ft | 157 kts | 265° |
| 2026-05-04 13:18 | -14.81412 | -38.96362 | 1190 ft | 157 kts | 265° |
| 2026-05-04 13:19 | -14.81434 | -38.97445 | 972 ft | 145 kts | 265° |
| 2026-05-04 13:19 | -14.81460 | -38.98476 | 807 ft | 144 kts | 265° |
| 2026-05-04 13:19 | -14.81487 | -38.99498 | 618 ft | 143 kts | 265° |
| 2026-05-04 13:19 | -14.81514 | -39.00530 | 417 ft | 142 kts | 266° |
| 2026-05-04 13:20 | -14.81538 | -39.01555 | 264 ft | 141 kts | 266° |
| 2026-05-04 13:20 | -14.81569 | -39.02567 | 82 ft | 140 kts | 266° |
| 2026-05-04 13:20 | -14.81596 | -39.03467 | 25 ft | 87 kts | 268° |
| 2026-05-04 13:20 | -14.81606 | -39.03869 | 24 ft | 43 kts | 268° |
| 2026-05-04 13:21 | -14.81600 | -39.04006 | 24 ft | 4 kts | 253° |
| 2026-05-04 13:21 | -14.81614 | -39.03995 | 24 ft | 4 kts | 85° |
| 2026-05-04 13:21 | -14.81610 | -39.03940 | 24 ft | 11 kts | 86° |
| 2026-05-04 13:21 | -14.81605 | -39.03840 | 24 ft | 14 kts | 88° |
| 2026-05-04 13:22 | -14.81602 | -39.03733 | 24 ft | 14 kts | 89° |
| 2026-05-04 13:22 | -14.81599 | -39.03629 | 24 ft | 14 kts | 88° |
| 2026-05-04 13:22 | -14.81597 | -39.03519 | 25 ft | 15 kts | 89° |
| 2026-05-04 13:22 | -14.81594 | -39.03406 | 25 ft | 15 kts | 88° |
| 2026-05-04 13:23 | -14.81591 | -39.03301 | 25 ft | 11 kts | 87° |
| 2026-05-04 13:23 | -14.81553 | -39.03245 | 26 ft | 8 kts | 14° |
| 2026-05-04 13:23 | -14.81501 | -39.03239 | 26 ft | 6 kts | 27° |
| 2026-05-04 13:23 | -14.81471 | -39.03210 | 26 ft | 5 kts | 38° |
| 2026-05-04 13:24 | -14.81451 | -39.03192 | 26 ft | 2 kts | 46° |
| 2026-05-04 13:24 | -14.81447 | -39.03187 | 26 ft | 0 kts | 46° |
| 2026-05-04 13:24 | -14.81446 | -39.03186 | 26 ft | 0 kts | 46° |